Time;durP1;ratioP1;P1;durP2;ratioP2;P2;SDS_P1;SDS_P2;PMS_P1;PMS_P2;Temp;Humidity;BMP_temperature;BMP_pressure;BME280_temperature;BME280_humidity;BME280_pressure;Samples;Min_cycle;Max_cycle;Signal;HPM_P1;HPM_P2
2021/08/27 00:00:19;;;;;;;17.98;16.27;;;;;;;23.79;66.87;99013.91;5092159;28;20024;-74
2021/08/27 00:02:44;;;;;;;19.00;17.15;;;;;;;23.81;66.62;99009.84;5093546;28;20055;-74
2021/08/27 00:05:10;;;;;;;18.90;17.00;;;;;;;23.79;66.62;99006.63;5093560;28;20028;-74
2021/08/27 00:07:36;;;;;;;19.17;17.38;;;;;;;23.49;66.30;98968.97;5093575;28;20168;-74
2021/08/27 00:10:01;;;;;;;19.55;17.70;;;;;;;23.58;66.33;98997.00;5093573;28;20080;-74
2021/08/27 00:12:27;;;;;;;16.48;14.88;;;;;;;23.66;66.25;99018.78;5093449;28;20439;-74
2021/08/27 00:14:52;;;;;;;17.42;15.82;;;;;;;23.62;66.53;99023.13;5093535;28;20530;-74
2021/08/27 00:17:18;;;;;;;16.58;14.90;;;;;;;23.61;66.73;99023.41;5092088;28;20485;-74
2021/08/27 00:19:43;;;;;;;17.75;16.10;;;;;;;23.19;66.43;98962.63;5093374;28;20020;-74
2021/08/27 00:22:09;;;;;;;18.67;16.85;;;;;;;23.57;66.64;99022.34;5092988;28;20027;-74
2021/08/27 00:24:35;;;;;;;16.88;15.07;;;;;;;23.30;66.55;98976.88;5092937;28;20453;-75
2021/08/27 00:27:00;;;;;;;17.80;15.90;;;;;;;23.53;66.59;99013.16;5092969;28;20055;-74
2021/08/27 00:29:25;;;;;;;19.83;17.98;;;;;;;23.57;66.70;99014.25;5091906;28;20125;-74
2021/08/27 00:31:51;;;;;;;17.80;16.00;;;;;;;23.58;66.68;99019.38;5091662;28;20522;-74
2021/08/27 00:34:16;;;;;;;16.40;14.80;;;;;;;23.55;66.53;99017.22;5093024;28;20008;-75
2021/08/27 00:36:42;;;;;;;18.50;16.70;;;;;;;23.44;66.73;98991.38;5091330;28;20019;-75
2021/08/27 00:39:07;;;;;;;18.42;16.63;;;;;;;23.18;66.93;98954.84;5092707;28;20424;-74
2021/08/27 00:41:32;;;;;;;16.90;15.38;;;;;;;23.58;66.81;99015.88;5092630;28;20035;-74
2021/08/27 00:43:58;;;;;;;17.20;15.50;;;;;;;23.22;66.56;98959.38;5092736;28;20477;-74
2021/08/27 00:46:23;;;;;;;16.88;15.07;;;;;;;23.54;66.51;99006.69;5092515;28;20564;-75
2021/08/27 00:48:49;;;;;;;16.20;14.70;;;;;;;23.53;66.59;99005.06;5092612;28;20031;-74
2021/08/27 00:51:14;;;;;;;17.15;15.45;;;;;;;23.46;66.41;98989.19;5092675;28;20111;-74
2021/08/27 00:53:40;;;;;;;17.63;15.88;;;;;;;23.50;66.46;98992.97;5091362;28;20012;-74
2021/08/27 00:56:06;;;;;;;19.80;15.82;;;;;;;23.49;66.61;98993.22;5092691;28;20054;-75
2021/08/27 00:58:31;;;;;;;17.35;15.45;;;;;;;23.49;66.73;98996.72;5092533;28;20096;-73
2021/08/27 01:00:58;;;;;;;18.30;15.70;;;;;;;23.48;66.83;99002.41;5092732;28;20107;-74
2021/08/27 01:03:23;;;;;;;16.75;15.07;;;;;;;23.28;66.83;98971.75;5092199;28;20028;-74
2021/08/27 01:06:02;;;;;;;16.20;14.57;;;;;;;23.41;66.95;99010.78;5092237;28;20038;-74
2021/08/27 01:08:45;;;;;;;16.90;14.35;;;;;;;22.99;66.68;98950.00;5092425;28;20027;-74
2021/08/27 01:11:26;;;;;;;15.80;14.20;;;;;;;23.38;66.93;99005.94;5090959;28;20024;-75
2021/08/27 01:13:54;;;;;;;;;;;;;;;23.18;67.33;99004.13;5092726;28;20550;-74
2021/08/27 01:16:25;;;;;;;19.77;15.07;;;;;;;23.19;67.14;98991.44;5090927;28;20370;-74
2021/08/27 01:19:11;;;;;;;15.77;14.27;;;;;;;23.30;66.98;98999.22;5090990;28;20034;-74
2021/08/27 01:21:44;;;;;;;16.92;15.23;;;;;;;23.29;66.97;99003.00;5090818;28;20034;-74
2021/08/27 01:24:12;;;;;;;16.83;15.05;;;;;;;23.27;66.80;99013.25;5090673;28;20024;-74
2021/08/27 01:26:48;;;;;;;16.67;14.55;;;;;;;23.19;66.87;98992.25;5090709;28;20131;-74
2021/08/27 01:29:20;;;;;;;16.73;15.07;;;;;;;23.14;66.95;98990.38;5091978;28;20028;-74
2021/08/27 01:31:54;;;;;;;16.90;15.23;;;;;;;22.89;66.88;98941.97;5091792;28;20028;-75
2021/08/27 01:34:28;;;;;;;15.95;14.40;;;;;;;23.24;66.67;98999.53;5091298;28;20022;-74
2021/08/27 01:36:56;;;;;;;16.90;14.52;;;;;;;22.75;66.72;98916.66;5090606;28;20089;-74
2021/08/27 01:39:27;;;;;;;16.23;14.73;;;;;;;23.23;66.53;98996.03;5091761;28;20027;-74
2021/08/27 01:41:56;;;;;;;16.70;15.00;;;;;;;23.22;66.55;98999.00;5091689;28;20491;-74
2021/08/27 01:44:23;;;;;;;16.35;14.70;;;;;;;23.22;66.85;99001.69;5090428;28;20024;-73
2021/08/27 01:46:52;;;;;;;17.20;14.65;;;;;;;23.00;66.54;98967.78;5091664;28;20044;-75
2021/08/27 01:49:19;;;;;;;15.88;14.15;;;;;;;23.23;66.54;99012.19;5091781;28;20024;-74
2021/08/27 01:51:47;;;;;;;16.55;14.90;;;;;;;23.12;66.30;98997.13;5091717;28;20020;-74
2021/08/27 01:54:14;;;;;;;16.17;14.48;;;;;;;23.18;66.20;99014.06;5090386;28;20099;-74
2021/08/27 01:56:41;;;;;;;15.90;14.32;;;;;;;23.11;66.43;99022.44;5091773;28;20073;-74
2021/08/27 01:59:07;;;;;;;15.70;14.15;;;;;;;23.08;66.41;99017.59;5091588;28;20081;-74
2021/08/27 02:01:35;;;;;;;16.25;14.55;;;;;;;23.07;66.25;99008.72;5090468;28;20024;-74
2021/08/27 02:04:07;;;;;;;15.25;13.32;;;;;;;22.99;66.44;99003.06;5091595;28;20039;-75
2021/08/27 02:06:34;;;;;;;15.38;12.70;;;;;;;22.98;66.41;99004.13;5091455;28;20404;-74
2021/08/27 02:09:00;;;;;;;14.05;12.65;;;;;;;22.98;66.10;99007.63;5091490;28;20031;-74
2021/08/27 02:11:27;;;;;;;15.40;12.50;;;;;;;22.66;65.92;98964.84;5090182;28;20412;-75
2021/08/27 02:13:53;;;;;;;13.55;11.40;;;;;;;22.91;65.88;99009.78;5091335;28;20048;-73
2021/08/27 02:16:19;;;;;;;13.20;11.70;;;;;;;22.78;65.93;98991.47;5091186;28;20028;-74
2021/08/27 02:18:44;;;;;;;12.25;11.10;;;;;;;22.90;65.88;99018.94;5089917;28;20024;-74
2021/08/27 02:21:11;;;;;;;13.25;12.05;;;;;;;22.94;65.97;99020.03;5091230;28;20153;-74
2021/08/27 02:23:40;;;;;;;13.32;12.02;;;;;;;22.92;65.72;99016.78;5091136;28;20168;-74
2021/08/27 02:26:07;;;;;;;13.63;11.02;;;;;;;22.75;65.59;98994.72;5089692;28;20048;-73
2021/08/27 02:28:34;;;;;;;14.88;13.25;;;;;;;22.86;65.66;99000.91;5091383;28;20116;-74
2021/08/27 02:31:00;;;;;;;12.65;11.20;;;;;;;22.86;65.70;98988.25;5091180;28;20024;-74
2021/08/27 02:33:28;;;;;;;12.50;11.27;;;;;;;22.86;65.89;98988.25;5090005;28;20485;-75
2021/08/27 02:35:56;;;;;;;13.70;12.30;;;;;;;22.87;65.76;98983.69;5091200;28;20099;-74
2021/08/27 02:38:25;;;;;;;13.55;11.45;;;;;;;22.87;65.75;98986.38;5091390;28;20028;-74
2021/08/27 02:40:50;;;;;;;14.05;12.55;;;;;;;22.87;65.39;98975.63;5091434;28;20516;-74
2021/08/27 02:43:16;;;;;;;16.90;13.30;;;;;;;22.54;65.22;98939.31;5091036;28;20111;-74
2021/08/27 02:45:41;;;;;;;15.90;11.95;;;;;;;22.80;65.34;98979.38;5094022;28;20024;-74
2021/08/27 02:48:07;;;;;;;13.63;12.23;;;;;;;22.36;65.18;98900.31;5094974;28;20023;-73
2021/08/27 02:50:39;;;;;;;14.40;12.90;;;;;;;22.77;65.36;98966.44;5095018;28;20020;-74
2021/08/27 02:53:09;;;;;;;13.52;12.32;;;;;;;22.31;65.75;98898.44;5095022;28;20158;-74
2021/08/27 02:55:43;;;;;;;17.15;12.63;;;;;;;22.24;65.72;98905.13;5095014;28;20016;-74
2021/08/27 02:58:20;;;;;;;13.65;12.38;;;;;;;22.29;65.78;98930.13;5094906;28;20050;-74
2021/08/27 03:01:04;;;;;;;15.10;11.93;;;;;;;22.72;66.09;99004.13;5094768;28;20016;-74
2021/08/27 03:03:32;;;;;;;13.20;11.48;;;;;;;22.40;65.84;98930.97;5094734;28;20051;-74
2021/08/27 03:06:08;;;;;;;17.20;12.57;;;;;;;22.77;65.82;98979.91;5094745;28;20027;-75
2021/08/27 03:08:37;;;;;;;13.00;11.82;;;;;;;22.75;65.72;98973.97;5093384;28;20407;-74
2021/08/27 03:11:21;;;;;;;13.35;12.05;;;;;;;22.81;65.50;98975.63;5094395;28;20492;-74
2021/08/27 03:13:58;;;;;;;13.27;12.00;;;;;;;22.82;65.77;98954.91;5094453;28;20047;-74
2021/08/27 03:16:27;;;;;;;13.20;11.90;;;;;;;22.61;65.84;98937.94;5094466;28;20026;-73
2021/08/27 03:19:21;;;;;;;12.93;11.63;;;;;;;22.82;65.88;98960.28;5093269;28;20111;-74
2021/08/27 03:21:53;;;;;;;14.68;13.13;;;;;;;22.78;65.99;98959.97;5087894;28;20028;-74
2021/08/27 03:24:41;;;;;;;24.77;18.48;;;;;;;22.77;66.24;98979.91;5094287;28;20031;-75
2021/08/27 03:27:16;;;;;;;30.92;21.17;;;;;;;22.57;66.71;98969.16;5094113;28;20043;-74
2021/08/27 03:29:50;;;;;;;42.40;26.20;;;;;;;22.72;67.32;98998.75;5094395;28;20492;-74
2021/08/27 03:32:17;;;;;;;45.60;30.42;;;;;;;22.74;67.27;99007.34;5094434;28;20107;-75
2021/08/27 03:34:45;;;;;;;35.63;25.33;;;;;;;22.77;67.45;99006.81;5094431;28;20477;-74
2021/08/27 03:37:12;;;;;;;35.97;23.63;;;;;;;22.67;67.52;99008.72;5094127;28;20453;-74
2021/08/27 03:39:40;;;;;;;29.55;21.40;;;;;;;22.76;67.65;99010.59;5094130;28;20078;-74
2021/08/27 03:42:07;;;;;;;31.20;22.42;;;;;;;22.50;67.47;98992.84;5094010;28;20122;-74
2021/08/27 03:44:34;;;;;;;39.08;24.45;;;;;;;22.79;67.43;99023.50;5094176;28;20048;-74
2021/08/27 03:47:01;;;;;;;33.13;23.15;;;;;;;22.80;67.36;99025.16;5093916;28;20020;-74
2021/08/27 03:49:27;;;;;;;30.58;21.23;;;;;;;22.78;67.31;99018.41;5093765;28;20484;-74
2021/08/27 03:51:52;;;;;;;28.38;20.38;;;;;;;22.81;67.14;99025.97;5093613;28;20028;-74
2021/08/27 03:54:19;;;;;;;23.98;18.00;;;;;;;22.82;67.10;99028.38;5093916;28;20481;-74
2021/08/27 03:56:46;;;;;;;27.08;19.95;;;;;;;22.75;66.85;99014.34;5091816;28;20098;-74
2021/08/27 03:59:13;;;;;;;22.85;17.60;;;;;;;22.88;66.79;99023.00;5092497;28;20024;-74
2021/08/27 04:01:39;;;;;;;24.17;19.48;;;;;;;22.92;66.74;99026.75;5092434;28;20039;-73
2021/08/27 04:04:06;;;;;;;18.95;15.35;;;;;;;22.95;66.26;99016.25;5093612;28;20120;-74
2021/08/27 04:06:32;;;;;;;22.27;17.00;;;;;;;22.52;66.13;98948.44;5093841;28;20112;-74
2021/08/27 04:08:58;;;;;;;23.92;18.52;;;;;;;22.71;66.41;98986.38;5093559;28;20028;-73
2021/08/27 04:11:23;;;;;;;30.88;25.35;;;;;;;22.54;66.50;98963.50;5093275;28;20492;-74
2021/08/27 04:13:48;;;;;;;26.38;21.42;;;;;;;22.51;66.70;98956.78;5093342;28;20016;-74
2021/08/27 04:16:14;;;;;;;23.75;18.77;;;;;;;22.85;66.45;99005.50;5093324;28;20027;-74
2021/08/27 04:18:39;;;;;;;27.40;20.83;;;;;;;22.94;66.66;99024.59;5092152;28;20024;-74
2021/08/27 04:21:05;;;;;;;27.80;19.75;;;;;;;22.97;66.50;99015.97;5093426;28;20024;-74
2021/08/27 04:23:31;;;;;;;30.15;20.70;;;;;;;22.99;66.34;99014.63;5093270;28;20092;-74
2021/08/27 04:25:56;;;;;;;31.15;20.95;;;;;;;23.01;66.27;99025.13;5093086;28;20048;-74
2021/08/27 04:28:22;;;;;;;34.55;22.27;;;;;;;23.01;66.61;99023.25;5093227;28;20020;-74
2021/08/27 04:30:47;;;;;;;43.58;27.08;;;;;;;22.67;66.59;98965.66;5091714;28;20115;-74
2021/08/27 04:33:13;;;;;;;45.97;28.58;;;;;;;23.01;66.96;99007.09;5092876;28;20028;-73
2021/08/27 04:35:38;;;;;;;54.58;30.90;;;;;;;23.00;67.26;99021.63;5092986;28;20099;-74
2021/08/27 04:38:04;;;;;;;52.15;31.13;;;;;;;22.98;67.40;99018.41;5091655;28;20390;-74
2021/08/27 04:40:29;;;;;;;41.58;26.42;;;;;;;22.54;67.46;98950.06;5092879;28;20407;-74
2021/08/27 04:42:55;;;;;;;41.30;27.33;;;;;;;22.63;67.49;98956.50;5092883;28;20610;-74
2021/08/27 04:45:20;;;;;;;46.40;28.27;;;;;;;23.04;67.36;99022.72;5092442;28;20031;-74
2021/08/27 04:47:46;;;;;;;49.25;28.95;;;;;;;23.06;67.31;99025.16;5092704;28;20020;-73
2021/08/27 04:50:13;;;;;;;45.95;28.85;;;;;;;23.09;67.36;99024.59;5092562;28;20070;-74
2021/08/27 04:52:39;;;;;;;54.58;31.42;;;;;;;22.99;67.16;98989.59;5092670;28;20024;-74
2021/08/27 04:55:05;;;;;;;47.05;29.25;;;;;;;23.04;67.40;99001.19;5091247;28;20024;-74
2021/08/27 04:57:31;;;;;;;51.17;31.67;;;;;;;22.61;67.50;98927.19;5092567;28;20043;-74
2021/08/27 04:59:57;;;;;;;51.65;33.25;;;;;;;23.01;67.53;98998.19;5092381;28;20385;-73
2021/08/27 05:02:22;;;;;;;49.25;31.05;;;;;;;23.02;67.63;99005.19;5092226;28;20030;-74
2021/08/27 05:04:48;;;;;;;49.65;32.20;;;;;;;22.96;67.93;99012.47;5092484;28;20028;-74
2021/08/27 05:07:14;;;;;;;49.42;31.20;;;;;;;22.56;67.69;98934.47;5092163;28;20030;-75
2021/08/27 05:09:39;;;;;;;47.88;30.73;;;;;;;23.00;67.69;99008.16;5091551;28;20024;-75
2021/08/27 05:12:05;;;;;;;40.28;29.20;;;;;;;22.98;67.55;98991.47;5092157;28;20545;-74
2021/08/27 05:14:31;;;;;;;55.63;34.40;;;;;;;23.08;67.68;99006.84;5092392;28;20572;-73
2021/08/27 05:16:56;;;;;;;44.67;30.35;;;;;;;23.17;67.50;99007.88;5092254;28;20106;-73
2021/08/27 05:19:21;;;;;;;56.78;36.10;;;;;;;23.23;67.37;99017.56;5092002;28;20020;-74
2021/08/27 05:21:47;;;;;;;52.80;33.75;;;;;;;22.89;67.34;98965.38;5092167;28;20024;-74
2021/08/27 05:24:12;;;;;;;55.60;35.22;;;;;;;22.77;67.61;98947.59;5092031;28;20024;-79
2021/08/27 05:26:38;;;;;;;46.25;31.20;;;;;;;23.22;67.40;99024.03;5091724;28;20055;-79
2021/08/27 05:29:05;;;;;;;46.85;32.65;;;;;;;22.72;67.34;98954.88;5092023;28;20020;-79
2021/08/27 05:31:30;;;;;;;42.92;31.65;;;;;;;23.18;67.24;99030.25;5079549;28;20031;-79
2021/08/27 05:33:56;;;;;;;38.38;28.80;;;;;;;22.51;67.27;98927.19;5091949;28;20378;-80
2021/08/27 05:36:22;;;;;;;38.67;29.92;;;;;;;23.03;67.06;98990.66;5090056;28;20035;-79
2021/08/27 05:38:48;;;;;;;41.72;30.55;;;;;;;23.12;67.10;99000.63;5091804;28;20217;-80
2021/08/27 05:41:14;;;;;;;41.63;31.23;;;;;;;23.35;66.75;99028.03;5091763;28;20031;-79
2021/08/27 05:43:39;;;;;;;45.92;34.13;;;;;;;23.01;66.74;98973.97;5091624;28;20510;-80
2021/08/27 05:46:05;;;;;;;41.65;30.55;;;;;;;23.35;66.82;99019.97;5082519;28;20060;-79
2021/08/27 05:48:30;;;;;;;40.30;31.95;;;;;;;23.45;66.48;99026.13;5071941;28;20444;-79
2021/08/27 05:50:55;;;;;;;46.78;36.67;;;;;;;23.41;66.37;99022.34;5083524;28;20035;-79
2021/08/27 05:53:21;;;;;;;40.33;30.40;;;;;;;23.43;66.50;99028.28;5090419;28;20073;-79
2021/08/27 05:55:47;;;;;;;41.83;33.05;;;;;;;23.46;66.23;99014.25;5087221;28;20055;-80
2021/08/27 05:58:12;;;;;;;43.60;32.67;;;;;;;23.35;65.93;98993.81;5077285;28;20024;-79
2021/08/27 06:00:38;;;;;;;41.97;33.35;;;;;;;23.30;65.61;98966.09;5084694;28;20466;-79
2021/08/27 06:03:03;;;;;;;47.55;35.30;;;;;;;23.26;65.46;98960.47;5085648;28;20038;-79
2021/08/27 06:05:28;;;;;;;46.35;33.45;;;;;;;23.66;65.48;99017.97;5091364;28;20039;-79
2021/08/27 06:07:54;;;;;;;45.38;34.35;;;;;;;23.25;65.32;98964.22;5085752;28;20099;-81
2021/08/27 06:10:19;;;;;;;39.92;31.17;;;;;;;23.35;65.45;98987.63;5070805;28;20050;-79
2021/08/27 06:12:45;;;;;;;40.55;32.97;;;;;;;23.66;65.31;99048.44;5084129;28;20050;-79
2021/08/27 06:15:13;;;;;;;36.58;29.88;;;;;;;23.22;64.90;98978.25;5070994;28;20016;-79
2021/08/27 06:17:39;;;;;;;36.55;29.92;;;;;;;23.72;64.79;99047.34;5083502;28;20031;-79
2021/08/27 06:20:05;;;;;;;33.80;27.65;;;;;;;23.28;64.59;98954.78;5093162;28;20018;-80
2021/08/27 06:22:31;;;;;;;33.60;28.45;;;;;;;23.55;64.67;99019.91;5094947;28;20046;-80
2021/08/27 06:24:57;;;;;;;35.17;30.45;;;;;;;23.82;64.61;99041.13;5095113;28;20485;-74
2021/08/27 06:27:22;;;;;;;38.72;31.63;;;;;;;23.88;64.66;99047.31;5094993;28;20482;-74
2021/08/27 06:29:48;;;;;;;40.88;34.67;;;;;;;24.00;64.47;99066.66;5094504;28;20027;-74
2021/08/27 06:32:14;;;;;;;42.85;35.08;;;;;;;24.01;64.35;99079.06;5076058;28;20051;-74
2021/08/27 06:34:39;;;;;;;45.22;37.08;;;;;;;23.99;63.89;99068.53;5089204;28;20078;-74
2021/08/27 06:37:05;;;;;;;46.47;39.97;;;;;;;24.04;64.36;99078.50;5094122;28;20024;-74
2021/08/27 06:39:30;;;;;;;49.50;41.90;;;;;;;23.72;64.15;99031.16;5088239;28;20028;-73
2021/08/27 06:41:56;;;;;;;43.10;37.72;;;;;;;24.17;63.99;99094.06;5093363;28;20019;-74
2021/08/27 06:44:22;;;;;;;44.15;37.83;;;;;;;24.24;64.09;99091.06;5092656;28;20051;-74
2021/08/27 06:46:48;;;;;;;41.72;37.05;;;;;;;24.03;64.09;99069.59;5092654;28;20028;-73
2021/08/27 06:49:14;;;;;;;49.75;41.10;;;;;;;24.21;63.98;99091.63;5091360;28;20028;-74
2021/08/27 06:51:41;;;;;;;48.30;39.78;;;;;;;24.26;63.54;99097.81;5092240;28;20389;-74
2021/08/27 06:54:07;;;;;;;45.65;40.65;;;;;;;24.07;63.67;99065.25;5094716;28;20028;-74
2021/08/27 06:56:33;;;;;;;46.22;39.80;;;;;;;24.27;63.44;99087.84;5092256;28;20016;-74
2021/08/27 06:58:59;;;;;;;45.67;39.80;;;;;;;24.33;63.20;99086.72;5091363;28;20043;-73
2021/08/27 07:01:25;;;;;;;44.92;39.92;;;;;;;24.47;63.08;99097.72;5091432;28;20024;-74
2021/08/27 07:03:50;;;;;;;39.53;35.30;;;;;;;24.16;62.55;99038.50;5092048;28;20059;-75
2021/08/27 07:06:16;;;;;;;43.53;38.92;;;;;;;24.59;62.38;99100.91;5085688;28;20489;-74
2021/08/27 07:08:41;;;;;;;41.20;36.88;;;;;;;24.25;62.35;99052.22;5093033;28;20683;-74
2021/08/27 07:11:07;;;;;;;37.03;33.13;;;;;;;24.23;62.27;99059.78;5092809;28;20013;-74
2021/08/27 07:13:33;;;;;;;40.15;34.88;;;;;;;24.60;62.41;99113.31;5092887;28;20051;-74
2021/08/27 07:15:58;;;;;;;38.75;34.58;;;;;;;24.70;62.02;99111.34;5086568;28;20025;-75
2021/08/27 07:18:26;;;;;;;40.95;35.70;;;;;;;24.77;61.60;99107.53;5081472;28;20032;-74
2021/08/27 07:20:52;;;;;;;36.65;32.22;;;;;;;24.76;61.77;99111.31;5073542;28;20090;-74
2021/08/27 07:23:18;;;;;;;34.08;30.48;;;;;;;24.79;61.54;99111.56;5078781;28;20479;-74
2021/08/27 07:25:44;;;;;;;34.45;30.85;;;;;;;24.78;61.92;99098.34;5091149;28;20131;-75
2021/08/27 07:28:09;;;;;;;34.72;31.05;;;;;;;24.45;61.56;99041.31;5086511;28;20051;-74
2021/08/27 07:30:36;;;;;;;37.13;32.22;;;;;;;24.96;61.53;99108.44;5086124;28;20092;-74
2021/08/27 07:33:02;;;;;;;38.47;34.08;;;;;;;24.92;61.40;99105.50;5084299;28;20020;-74
2021/08/27 07:35:28;;;;;;;35.40;31.25;;;;;;;24.45;61.51;99027.03;5092141;28;20023;-74
2021/08/27 07:37:53;;;;;;;34.63;30.90;;;;;;;24.95;61.69;99102.25;5088249;28;20021;-74
2021/08/27 07:40:20;;;;;;;36.88;32.80;;;;;;;24.77;61.66;99075.94;5088092;28;20028;-74
2021/08/27 07:42:45;;;;;;;35.08;31.58;;;;;;;24.99;61.27;99111.41;5089902;28;20031;-74
2021/08/27 07:45:13;;;;;;;35.40;31.88;;;;;;;25.01;60.93;99097.63;5075814;28;20024;-75
2021/08/27 07:47:40;;;;;;;36.90;33.13;;;;;;;25.06;60.81;99110.28;5089890;28;20028;-74
2021/08/27 07:50:07;;;;;;;36.67;32.80;;;;;;;25.10;60.64;99100.53;5091337;28;20575;-74
2021/08/27 07:52:32;;;;;;;34.22;30.63;;;;;;;24.69;60.25;99036.03;5090619;28;20115;-74
2021/08/27 07:54:58;;;;;;;36.67;33.03;;;;;;;25.14;60.25;99096.16;5089307;28;20154;-74
2021/08/27 07:57:23;;;;;;;38.33;34.60;;;;;;;25.14;59.78;99091.56;5089555;28;20072;-74
2021/08/27 07:59:48;;;;;;;37.42;33.50;;;;;;;25.17;60.00;99085.59;5087019;28;20039;-74
2021/08/27 08:02:14;;;;;;;33.33;29.95;;;;;;;25.31;59.58;99091.97;5090310;28;20039;-74
2021/08/27 08:04:41;;;;;;;34.28;30.65;;;;;;;25.21;59.35;99070.44;5088263;28;20016;-74
2021/08/27 08:07:07;;;;;;;32.83;29.55;;;;;;;25.56;58.74;99092.78;5089785;28;20137;-74
2021/08/27 08:09:32;;;;;;;30.70;27.80;;;;;;;25.53;58.82;99083.38;5088760;28;20045;-75
2021/08/27 08:11:57;;;;;;;30.40;27.40;;;;;;;25.45;58.04;99046.16;5089576;28;20056;-74
2021/08/27 08:14:23;;;;;;;33.90;30.42;;;;;;;25.90;57.57;99079.97;5089395;28;20016;-74
2021/08/27 08:16:49;;;;;;;31.95;28.75;;;;;;;26.13;57.48;99096.50;5078737;28;20093;-74
2021/08/27 08:19:14;;;;;;;32.35;29.08;;;;;;;26.05;57.25;99086.31;5085438;28;20136;-73
2021/08/27 08:21:40;;;;;;;33.22;30.02;;;;;;;25.77;57.35;99067.16;5086888;28;20032;-75
2021/08/27 08:24:06;;;;;;;33.63;30.27;;;;;;;25.82;57.34;99069.81;5088560;28;20028;-72
2021/08/27 08:26:31;;;;;;;35.63;31.88;;;;;;;25.86;57.54;99076.25;5089628;28;20032;-75
2021/08/27 08:28:58;;;;;;;35.13;31.40;;;;;;;25.70;57.16;99047.78;5089569;28;20044;-75
2021/08/27 08:31:23;;;;;;;36.80;33.05;;;;;;;25.92;57.18;99091.31;5090800;28;20103;-76
2021/08/27 08:33:53;;;;;;;37.78;34.15;;;;;;;25.56;57.29;99036.03;5088669;28;20107;-74
2021/08/27 08:36:20;;;;;;;38.60;34.70;;;;;;;25.79;57.54;99091.22;5091116;28;21987;-74
2021/08/27 08:38:47;;;;;;;32.05;28.88;;;;;;;25.52;57.47;99056.63;5080392;28;20050;-74
2021/08/27 08:41:16;;;;;;;30.23;27.40;;;;;;;25.67;57.12;99098.94;5086608;28;20401;-74
2021/08/27 08:43:46;;;;;;;27.73;25.00;;;;;;;25.64;56.77;99092.16;5083188;28;20067;-74
2021/08/27 08:46:13;;;;;;;29.85;25.77;;;;;;;25.62;56.44;99080.84;5087430;28;20098;-74
2021/08/27 08:48:40;;;;;;;24.75;22.35;;;;;;;25.67;56.42;99101.63;5083710;28;20036;-74
2021/08/27 08:51:06;;;;;;;27.02;24.33;;;;;;;25.22;56.32;99046.91;5085858;28;20025;-75
2021/08/27 08:53:36;;;;;;;28.65;26.08;;;;;;;25.72;56.39;99096.16;5071947;28;20031;-75
2021/08/27 08:56:03;;;;;;;31.25;28.15;;;;;;;25.82;56.28;99106.88;5080452;28;20024;-75
2021/08/27 08:58:31;;;;;;;27.48;24.80;;;;;;;25.05;55.72;98958.22;5091215;28;20043;-73
2021/08/27 09:00:56;;;;;;;28.83;26.15;;;;;;;25.80;55.42;99063.88;5086630;28;20027;-74
2021/08/27 09:03:22;;;;;;;28.08;25.40;;;;;;;25.74;55.49;99027.19;5071874;28;20104;-74
2021/08/27 09:05:48;;;;;;;28.58;25.80;;;;;;;26.30;55.16;99094.09;5088206;28;20020;-72
2021/08/27 09:08:43;;;;;;;29.42;26.73;;;;;;;26.42;54.65;99080.97;5090243;28;20085;-74
2021/08/27 09:11:20;;;;;;;31.10;28.10;;;;;;;26.25;54.70;99043.53;5082835;28;20492;-73
2021/08/27 09:13:48;;;;;;;28.13;25.52;;;;;;;26.58;54.26;99065.28;5088493;28;20103;-73
2021/08/27 09:16:14;;;;;;;31.83;28.70;;;;;;;26.67;54.42;99058.09;5089059;28;20027;-74
2021/08/27 09:18:48;;;;;;;29.92;27.13;;;;;;;26.90;53.84;99048.25;5090560;28;20408;-74
2021/08/27 09:21:36;;;;;;;28.50;25.80;;;;;;;27.06;53.47;99046.94;5090618;28;20092;-74
2021/08/27 09:24:20;;;;;;;30.48;27.58;;;;;;;27.15;52.78;99047.03;5089086;28;20024;-75
2021/08/27 09:26:58;;;;;;;29.50;26.50;;;;;;;27.17;52.77;99031.28;5088537;28;20055;-74
2021/08/27 09:29:35;;;;;;;29.25;26.35;;;;;;;27.49;52.06;99046.66;5085629;28;20515;-75
2021/08/27 09:32:17;;;;;;;28.85;25.70;;;;;;;27.59;51.84;99045.69;5089905;28;20062;-74
2021/08/27 09:34:42;;;;;;;;;;;;;;;27.49;51.99;99046.66;5090023;28;20023;-74
2021/08/27 09:37:07;;;;;;;29.67;26.70;;;;;;;27.42;51.76;99003.69;5089045;28;19989;-74
2021/08/27 09:39:34;;;;;;;30.00;27.17;;;;;;;27.73;51.20;99050.03;5094313;28;20484;-74
2021/08/27 09:42:00;;;;;;;29.95;27.00;;;;;;;27.69;51.23;99061.78;5096291;28;20047;-75
2021/08/27 09:44:26;;;;;;;31.63;28.52;;;;;;;27.45;51.12;99030.19;5087996;28;20024;-75
2021/08/27 09:46:51;;;;;;;31.38;28.38;;;;;;;27.61;50.70;99006.34;5090734;28;20035;-73
2021/08/27 09:49:31;;;;;;;39.70;35.72;;;;;;;28.33;49.60;99043.63;5085075;28;20027;-75
2021/08/27 09:52:01;;;;;;;29.85;27.05;;;;;;;28.50;48.80;99008.47;5089014;28;20111;-75
2021/08/27 09:54:26;;;;;;;28.30;25.77;;;;;;;28.91;47.58;99021.03;5088266;28;20044;-75
2021/08/27 09:57:03;;;;;;;25.58;23.38;;;;;;;29.00;46.87;98987.38;5088181;28;20634;-73
2021/08/27 09:59:44;;;;;;;27.52;24.73;;;;;;;29.44;46.95;99041.97;5086701;28;20043;-73
2021/08/27 10:02:16;;;;;;;27.75;25.25;;;;;;;29.27;46.55;99040.75;5089444;28;20051;-74
2021/08/27 10:04:49;;;;;;;33.25;29.98;;;;;;;29.07;46.56;98984.22;5088960;28;20031;-74
2021/08/27 10:07:29;;;;;;;25.05;22.65;;;;;;;29.11;46.10;98979.75;5084201;28;20056;-73
2021/08/27 10:09:58;;;;;;;24.85;22.50;;;;;;;29.43;45.88;98978.63;5067942;28;20032;-74
2021/08/27 10:12:27;;;;;;;25.17;22.90;;;;;;;29.59;44.88;98977.06;5088577;28;20119;-73
2021/08/27 10:14:53;;;;;;;25.88;23.52;;;;;;;30.08;44.93;99020.56;5086269;28;20039;-74
2021/08/27 10:17:18;;;;;;;23.70;21.20;;;;;;;30.36;43.92;99013.66;5078341;28;20060;-73
2021/08/27 10:19:44;;;;;;;48.70;43.97;;;;;;;30.42;43.95;98976.97;5079733;28;20046;-74
2021/08/27 10:22:09;;;;;;;32.58;29.58;;;;;;;30.95;43.33;99006.56;5087587;28;20154;-73
2021/08/27 10:24:34;;;;;;;30.35;27.45;;;;;;;30.77;42.72;98903.38;5082294;28;20409;-79
2021/08/27 10:27:00;;;;;;;26.85;24.40;;;;;;;31.63;41.81;98995.72;5085863;28;20428;-78
2021/08/27 10:29:26;;;;;;;27.73;25.05;;;;;;;31.64;41.40;98997.31;5088560;28;20024;-78
2021/08/27 10:31:54;;;;;;;25.80;23.45;;;;;;;31.41;41.86;98974.97;5089034;28;20482;-79
2021/08/27 10:34:41;;;;;;;23.35;21.02;;;;;;;31.40;42.09;98981.56;5088196;28;20381;-77
2021/08/27 10:37:07;;;;;;;27.48;24.88;;;;;;;31.50;41.20;98972.19;5089375;28;20046;-78
2021/08/27 10:39:42;;;;;;;25.75;22.98;;;;;;;31.25;41.49;98906.56;5088285;28;20028;-79
2021/08/27 10:42:28;;;;;;;24.08;22.00;;;;;;;31.87;41.03;98982.25;5088944;28;20016;-79
2021/08/27 10:44:53;;;;;;;23.75;21.65;;;;;;;32.17;40.66;98979.47;5084619;28;20042;-78
2021/08/27 10:47:19;;;;;;;23.27;21.10;;;;;;;32.21;40.20;98953.09;5089173;28;20031;-78
2021/08/27 10:49:44;;;;;;;24.98;22.48;;;;;;;32.47;39.79;98964.59;5087224;28;20032;-78
2021/08/27 10:52:30;;;;;;;24.63;22.48;;;;;;;32.39;39.23;98972.88;5089966;28;20032;-79
2021/08/27 10:55:10;;;;;;;25.10;22.85;;;;;;;32.53;39.46;98970.66;5089074;28;20077;-79
2021/08/27 10:57:48;;;;;;;24.65;22.55;;;;;;;32.70;38.39;98977.88;5090596;28;20020;-79
2021/08/27 11:00:29;;;;;;;24.80;22.50;;;;;;;32.64;38.71;98971.81;5087982;28;20560;-79
2021/08/27 11:02:55;;;;;;;23.33;21.33;;;;;;;32.62;38.75;98971.34;5088393;28;20432;-78
2021/08/27 11:05:35;;;;;;;27.13;24.50;;;;;;;32.62;38.71;98929.56;5090531;28;20039;-79
2021/08/27 11:08:02;;;;;;;23.38;20.98;;;;;;;33.04;38.18;98963.06;5077389;28;20036;-79
2021/08/27 11:10:28;;;;;;;24.77;22.27;;;;;;;32.95;38.23;98941.28;5093619;28;20019;-79
2021/08/27 11:13:00;;;;;;;24.90;22.50;;;;;;;33.34;37.90;98953.50;5092879;28;20553;-79
2021/08/27 11:15:30;;;;;;;25.08;22.88;;;;;;;33.51;37.66;98959.91;5094198;28;20507;-81
2021/08/27 11:18:06;;;;;;;29.03;26.43;;;;;;;33.17;37.36;98908.00;5094002;28;20113;-78
2021/08/27 11:20:32;;;;;;;23.83;21.63;;;;;;;33.05;37.36;98904.47;5091010;28;20290;-77